sensor_id;sensor_type;location;lat;lon;timestamp;P1;durP1;ratioP1;P2;durP2;ratioP2
18166;SDS011;9208;42.688;23.404;2022-12-18T00:01:13;7.30;;;6.60;;
18166;SDS011;9208;42.688;23.404;2022-12-18T00:03:43;7.80;;;7.00;;
18166;SDS011;9208;42.688;23.404;2022-12-18T00:06:09;9.67;;;7.10;;
18166;SDS011;9208;42.688;23.404;2022-12-18T00:08:35;8.03;;;6.40;;
18166;SDS011;9208;42.688;23.404;2022-12-18T00:11:04;8.33;;;7.17;;
18166;SDS011;9208;42.688;23.404;2022-12-18T00:13:31;7.97;;;6.90;;
18166;SDS011;9208;42.688;23.404;2022-12-18T00:16:00;8.47;;;7.17;;
18166;SDS011;9208;42.688;23.404;2022-12-18T00:18:30;7.23;;;6.47;;
18166;SDS011;9208;42.688;23.404;2022-12-18T00:20:59;8.60;;;7.40;;
18166;SDS011;9208;42.688;23.404;2022-12-18T00:23:26;7.60;;;6.60;;
18166;SDS011;9208;42.688;23.404;2022-12-18T00:25:53;7.37;;;6.33;;
18166;SDS011;9208;42.688;23.404;2022-12-18T00:28:18;7.77;;;7.00;;
18166;SDS011;9208;42.688;23.404;2022-12-18T00:30:44;7.40;;;6.30;;
18166;SDS011;9208;42.688;23.404;2022-12-18T00:33:09;8.40;;;7.03;;
18166;SDS011;9208;42.688;23.404;2022-12-18T00:35:35;7.90;;;7.00;;
18166;SDS011;9208;42.688;23.404;2022-12-18T00:38:00;7.83;;;7.03;;
18166;SDS011;9208;42.688;23.404;2022-12-18T00:40:25;8.60;;;7.70;;
18166;SDS011;9208;42.688;23.404;2022-12-18T00:42:51;9.53;;;8.03;;
18166;SDS011;9208;42.688;23.404;2022-12-18T00:45:26;8.93;;;7.83;;
18166;SDS011;9208;42.688;23.404;2022-12-18T00:47:58;9.27;;;7.27;;
18166;SDS011;9208;42.688;23.404;2022-12-18T00:50:24;9.83;;;8.00;;
18166;SDS011;9208;42.688;23.404;2022-12-18T00:52:50;9.47;;;7.53;;
18166;SDS011;9208;42.688;23.404;2022-12-18T00:55:16;8.77;;;7.43;;
18166;SDS011;9208;42.688;23.404;2022-12-18T00:57:42;9.30;;;7.67;;
18166;SDS011;9208;42.688;23.404;2022-12-18T01:00:08;8.57;;;7.60;;
18166;SDS011;9208;42.688;23.404;2022-12-18T01:02:36;8.53;;;7.40;;
18166;SDS011;9208;42.688;23.404;2022-12-18T01:05:02;10.23;;;8.10;;
18166;SDS011;9208;42.688;23.404;2022-12-18T01:07:28;7.40;;;6.70;;
18166;SDS011;9208;42.688;23.404;2022-12-18T01:09:54;7.53;;;6.80;;
18166;SDS011;9208;42.688;23.404;2022-12-18T01:12:19;9.63;;;7.60;;
18166;SDS011;9208;42.688;23.404;2022-12-18T01:14:45;7.87;;;7.07;;
18166;SDS011;9208;42.688;23.404;2022-12-18T01:17:10;10.30;;;7.83;;
18166;SDS011;9208;42.688;23.404;2022-12-18T01:19:36;9.00;;;7.53;;
18166;SDS011;9208;42.688;23.404;2022-12-18T01:22:01;7.97;;;6.97;;
18166;SDS011;9208;42.688;23.404;2022-12-18T01:24:27;7.93;;;7.13;;
18166;SDS011;9208;42.688;23.404;2022-12-18T01:26:52;9.60;;;8.60;;
18166;SDS011;9208;42.688;23.404;2022-12-18T01:29:18;8.37;;;7.10;;
18166;SDS011;9208;42.688;23.404;2022-12-18T01:31:43;8.13;;;7.33;;
18166;SDS011;9208;42.688;23.404;2022-12-18T01:34:09;8.73;;;7.63;;
18166;SDS011;9208;42.688;23.404;2022-12-18T01:36:36;9.47;;;7.33;;
18166;SDS011;9208;42.688;23.404;2022-12-18T01:39:05;8.67;;;7.77;;
18166;SDS011;9208;42.688;23.404;2022-12-18T01:41:32;9.70;;;8.17;;
18166;SDS011;9208;42.688;23.404;2022-12-18T01:47:24;9.20;;;7.73;;
18166;SDS011;9208;42.688;23.404;2022-12-18T01:49:51;9.33;;;8.33;;
18166;SDS011;9208;42.688;23.404;2022-12-18T01:52:17;8.53;;;7.63;;
18166;SDS011;9208;42.688;23.404;2022-12-18T01:54:45;9.63;;;8.33;;
18166;SDS011;9208;42.688;23.404;2022-12-18T01:57:12;9.17;;;7.90;;
18166;SDS011;9208;42.688;23.404;2022-12-18T01:59:38;8.80;;;7.83;;
18166;SDS011;9208;42.688;23.404;2022-12-18T02:02:06;10.63;;;8.20;;
18166;SDS011;9208;42.688;23.404;2022-12-18T02:04:33;9.70;;;8.47;;
18166;SDS011;9208;42.688;23.404;2022-12-18T02:09:59;8.43;;;7.50;;
18166;SDS011;9208;42.688;23.404;2022-12-18T02:12:39;8.90;;;7.50;;
18166;SDS011;9208;42.688;23.404;2022-12-18T02:15:19;9.30;;;8.20;;
18166;SDS011;9208;42.688;23.404;2022-12-18T02:17:56;8.93;;;7.47;;
18166;SDS011;9208;42.688;23.404;2022-12-18T02:20:49;8.07;;;7.20;;
18166;SDS011;9208;42.688;23.404;2022-12-18T02:28:38;9.00;;;7.40;;
18166;SDS011;9208;42.688;23.404;2022-12-18T02:31:14;8.87;;;7.17;;
18166;SDS011;9208;42.688;23.404;2022-12-18T02:33:43;7.60;;;6.60;;
18166;SDS011;9208;42.688;23.404;2022-12-18T02:36:10;7.93;;;6.60;;
18166;SDS011;9208;42.688;23.404;2022-12-18T02:38:38;8.90;;;7.07;;
18166;SDS011;9208;42.688;23.404;2022-12-18T02:41:04;8.63;;;6.93;;
18166;SDS011;9208;42.688;23.404;2022-12-18T02:43:31;9.07;;;6.67;;
18166;SDS011;9208;42.688;23.404;2022-12-18T02:45:58;6.87;;;6.17;;
18166;SDS011;9208;42.688;23.404;2022-12-18T02:48:34;7.93;;;6.63;;
18166;SDS011;9208;42.688;23.404;2022-12-18T02:51:03;7.10;;;6.40;;
18166;SDS011;9208;42.688;23.404;2022-12-18T02:56:50;6.93;;;6.07;;
18166;SDS011;9208;42.688;23.404;2022-12-18T02:59:19;6.73;;;6.03;;
18166;SDS011;9208;42.688;23.404;2022-12-18T03:01:57;7.27;;;6.53;;
18166;SDS011;9208;42.688;23.404;2022-12-18T03:04:30;7.87;;;6.47;;
18166;SDS011;9208;42.688;23.404;2022-12-18T03:07:13;7.63;;;6.63;;
18166;SDS011;9208;42.688;23.404;2022-12-18T03:09:48;7.93;;;7.07;;
18166;SDS011;9208;42.688;23.404;2022-12-18T03:12:59;8.17;;;6.63;;
18166;SDS011;9208;42.688;23.404;2022-12-18T03:17:43;8.80;;;7.47;;
18166;SDS011;9208;42.688;23.404;2022-12-18T03:20:14;8.27;;;6.97;;
18166;SDS011;9208;42.688;23.404;2022-12-18T03:22:44;9.87;;;7.50;;
18166;SDS011;9208;42.688;23.404;2022-12-18T03:25:14;8.37;;;6.57;;
18166;SDS011;9208;42.688;23.404;2022-12-18T03:27:44;8.83;;;7.40;;
18166;SDS011;9208;42.688;23.404;2022-12-18T03:30:14;8.57;;;7.07;;
18166;SDS011;9208;42.688;23.404;2022-12-18T03:35:45;8.07;;;6.73;;
18166;SDS011;9208;42.688;23.404;2022-12-18T03:38:11;7.07;;;6.37;;
18166;SDS011;9208;42.688;23.404;2022-12-18T03:40:43;8.17;;;6.80;;
18166;SDS011;9208;42.688;23.404;2022-12-18T03:46:02;8.97;;;6.73;;
18166;SDS011;9208;42.688;23.404;2022-12-18T03:48:44;9.13;;;7.30;;
18166;SDS011;9208;42.688;23.404;2022-12-18T03:51:18;7.30;;;6.60;;
18166;SDS011;9208;42.688;23.404;2022-12-18T03:54:01;7.90;;;7.10;;
18166;SDS011;9208;42.688;23.404;2022-12-18T03:56:29;8.20;;;7.33;;
18166;SDS011;9208;42.688;23.404;2022-12-18T03:58:58;8.20;;;7.37;;
18166;SDS011;9208;42.688;23.404;2022-12-18T04:01:33;7.73;;;6.90;;
18166;SDS011;9208;42.688;23.404;2022-12-18T04:04:02;9.77;;;7.67;;
18166;SDS011;9208;42.688;23.404;2022-12-18T04:06:29;11.10;;;7.50;;
18166;SDS011;9208;42.688;23.404;2022-12-18T04:08:59;9.90;;;7.87;;
18166;SDS011;9208;42.688;23.404;2022-12-18T04:11:25;8.97;;;7.20;;
18166;SDS011;9208;42.688;23.404;2022-12-18T04:13:52;8.70;;;7.60;;
18166;SDS011;9208;42.688;23.404;2022-12-18T04:16:20;9.80;;;7.90;;
18166;SDS011;9208;42.688;23.404;2022-12-18T04:18:46;9.93;;;7.63;;
18166;SDS011;9208;42.688;23.404;2022-12-18T04:21:11;9.90;;;8.40;;
18166;SDS011;9208;42.688;23.404;2022-12-18T04:23:37;8.93;;;8.03;;
18166;SDS011;9208;42.688;23.404;2022-12-18T04:26:02;9.27;;;8.27;;
18166;SDS011;9208;42.688;23.404;2022-12-18T04:28:28;10.73;;;8.10;;
18166;SDS011;9208;42.688;23.404;2022-12-18T04:30:53;8.63;;;7.83;;
18166;SDS011;9208;42.688;23.404;2022-12-18T04:33:19;10.37;;;8.23;;
18166;SDS011;9208;42.688;23.404;2022-12-18T04:35:45;12.47;;;9.60;;
18166;SDS011;9208;42.688;23.404;2022-12-18T04:38:10;12.17;;;9.40;;
18166;SDS011;9208;42.688;23.404;2022-12-18T04:40:36;11.60;;;9.50;;
18166;SDS011;9208;42.688;23.404;2022-12-18T04:43:02;9.83;;;8.60;;
18166;SDS011;9208;42.688;23.404;2022-12-18T04:45:29;12.10;;;9.20;;
18166;SDS011;9208;42.688;23.404;2022-12-18T04:47:57;9.13;;;8.10;;
18166;SDS011;9208;42.688;23.404;2022-12-18T04:50:23;12.37;;;9.13;;
18166;SDS011;9208;42.688;23.404;2022-12-18T04:52:49;12.60;;;9.80;;
18166;SDS011;9208;42.688;23.404;2022-12-18T04:55:14;14.17;;;9.90;;
18166;SDS011;9208;42.688;23.404;2022-12-18T04:57:40;12.47;;;9.50;;
18166;SDS011;9208;42.688;23.404;2022-12-18T05:00:05;11.10;;;9.63;;
18166;SDS011;9208;42.688;23.404;2022-12-18T05:02:32;12.17;;;9.67;;
18166;SDS011;9208;42.688;23.404;2022-12-18T05:04:58;13.07;;;10.60;;
18166;SDS011;9208;42.688;23.404;2022-12-18T05:07:23;13.37;;;10.73;;
18166;SDS011;9208;42.688;23.404;2022-12-18T05:09:49;13.63;;;10.90;;
18166;SDS011;9208;42.688;23.404;2022-12-18T05:12:14;13.27;;;10.10;;
18166;SDS011;9208;42.688;23.404;2022-12-18T05:14:40;12.67;;;10.23;;
18166;SDS011;9208;42.688;23.404;2022-12-18T05:17:06;12.20;;;9.30;;
18166;SDS011;9208;42.688;23.404;2022-12-18T05:19:31;13.00;;;10.23;;
18166;SDS011;9208;42.688;23.404;2022-12-18T05:21:57;14.20;;;11.40;;
18166;SDS011;9208;42.688;23.404;2022-12-18T05:24:22;11.23;;;10.03;;
18166;SDS011;9208;42.688;23.404;2022-12-18T05:26:48;15.20;;;10.87;;
18166;SDS011;9208;42.688;23.404;2022-12-18T05:29:13;15.17;;;11.33;;
18166;SDS011;9208;42.688;23.404;2022-12-18T05:31:42;12.57;;;9.60;;
18166;SDS011;9208;42.688;23.404;2022-12-18T05:34:07;14.53;;;10.97;;
18166;SDS011;9208;42.688;23.404;2022-12-18T05:36:33;14.87;;;10.90;;
18166;SDS011;9208;42.688;23.404;2022-12-18T05:38:58;12.77;;;10.97;;
18166;SDS011;9208;42.688;23.404;2022-12-18T05:41:25;13.83;;;10.57;;
18166;SDS011;9208;42.688;23.404;2022-12-18T05:43:50;13.30;;;10.77;;
18166;SDS011;9208;42.688;23.404;2022-12-18T05:46:16;14.50;;;10.77;;
18166;SDS011;9208;42.688;23.404;2022-12-18T05:48:43;17.10;;;11.40;;
18166;SDS011;9208;42.688;23.404;2022-12-18T05:51:11;13.70;;;10.97;;
18166;SDS011;9208;42.688;23.404;2022-12-18T05:53:39;15.77;;;11.13;;
18166;SDS011;9208;42.688;23.404;2022-12-18T05:56:06;15.30;;;11.63;;
18166;SDS011;9208;42.688;23.404;2022-12-18T05:58:36;13.93;;;11.07;;
18166;SDS011;9208;42.688;23.404;2022-12-18T06:01:19;14.93;;;10.83;;
18166;SDS011;9208;42.688;23.404;2022-12-18T06:03:47;17.30;;;12.37;;
18166;SDS011;9208;42.688;23.404;2022-12-18T06:06:17;13.40;;;11.00;;
18166;SDS011;9208;42.688;23.404;2022-12-18T06:08:48;14.77;;;11.23;;
18166;SDS011;9208;42.688;23.404;2022-12-18T06:11:22;16.17;;;12.20;;
18166;SDS011;9208;42.688;23.404;2022-12-18T06:13:53;15.63;;;12.47;;
18166;SDS011;9208;42.688;23.404;2022-12-18T06:16:20;16.33;;;12.87;;
18166;SDS011;9208;42.688;23.404;2022-12-18T06:18:46;15.23;;;11.73;;
18166;SDS011;9208;42.688;23.404;2022-12-18T06:21:12;17.90;;;12.40;;
18166;SDS011;9208;42.688;23.404;2022-12-18T06:23:38;15.67;;;11.23;;
18166;SDS011;9208;42.688;23.404;2022-12-18T06:26:04;14.63;;;11.70;;
18166;SDS011;9208;42.688;23.404;2022-12-18T06:28:31;13.63;;;10.57;;
18166;SDS011;9208;42.688;23.404;2022-12-18T06:30:57;14.27;;;11.57;;
18166;SDS011;9208;42.688;23.404;2022-12-18T06:33:25;16.93;;;11.87;;
18166;SDS011;9208;42.688;23.404;2022-12-18T06:35:51;14.03;;;11.70;;
18166;SDS011;9208;42.688;23.404;2022-12-18T06:38:17;15.77;;;11.87;;
18166;SDS011;9208;42.688;23.404;2022-12-18T06:40:42;15.27;;;11.87;;
18166;SDS011;9208;42.688;23.404;2022-12-18T06:43:08;15.53;;;11.37;;
18166;SDS011;9208;42.688;23.404;2022-12-18T06:45:33;15.83;;;12.00;;
18166;SDS011;9208;42.688;23.404;2022-12-18T06:47:59;15.07;;;11.40;;
18166;SDS011;9208;42.688;23.404;2022-12-18T06:50:24;15.50;;;11.80;;
18166;SDS011;9208;42.688;23.404;2022-12-18T06:52:50;14.77;;;12.30;;
18166;SDS011;9208;42.688;23.404;2022-12-18T06:55:16;15.33;;;12.10;;
18166;SDS011;9208;42.688;23.404;2022-12-18T06:57:41;15.13;;;11.67;;
18166;SDS011;9208;42.688;23.404;2022-12-18T07:00:08;13.73;;;11.63;;
18166;SDS011;9208;42.688;23.404;2022-12-18T07:02:37;14.67;;;10.60;;
18166;SDS011;9208;42.688;23.404;2022-12-18T07:05:02;15.33;;;11.83;;
18166;SDS011;9208;42.688;23.404;2022-12-18T07:07:28;14.27;;;11.20;;
18166;SDS011;9208;42.688;23.404;2022-12-18T07:09:54;16.33;;;12.07;;
18166;SDS011;9208;42.688;23.404;2022-12-18T07:12:19;14.97;;;11.80;;
18166;SDS011;9208;42.688;23.404;2022-12-18T07:14:44;16.53;;;12.20;;
18166;SDS011;9208;42.688;23.404;2022-12-18T07:17:10;14.27;;;11.60;;
18166;SDS011;9208;42.688;23.404;2022-12-18T07:19:36;14.87;;;11.80;;
18166;SDS011;9208;42.688;23.404;2022-12-18T07:22:01;15.10;;;11.17;;
18166;SDS011;9208;42.688;23.404;2022-12-18T07:24:27;15.20;;;11.37;;
18166;SDS011;9208;42.688;23.404;2022-12-18T07:26:53;14.57;;;11.33;;
18166;SDS011;9208;42.688;23.404;2022-12-18T07:29:19;16.47;;;11.97;;
18166;SDS011;9208;42.688;23.404;2022-12-18T07:31:44;17.27;;;12.10;;
18166;SDS011;9208;42.688;23.404;2022-12-18T07:34:11;17.20;;;12.27;;
18166;SDS011;9208;42.688;23.404;2022-12-18T07:36:37;17.10;;;12.87;;
18166;SDS011;9208;42.688;23.404;2022-12-18T07:39:03;17.33;;;12.47;;
18166;SDS011;9208;42.688;23.404;2022-12-18T07:41:28;16.00;;;12.50;;
18166;SDS011;9208;42.688;23.404;2022-12-18T07:43:53;14.63;;;11.80;;
18166;SDS011;9208;42.688;23.404;2022-12-18T07:46:19;16.83;;;12.50;;
18166;SDS011;9208;42.688;23.404;2022-12-18T07:48:45;17.40;;;13.30;;
18166;SDS011;9208;42.688;23.404;2022-12-18T07:51:11;17.27;;;12.87;;
18166;SDS011;9208;42.688;23.404;2022-12-18T07:53:37;15.93;;;12.63;;
18166;SDS011;9208;42.688;23.404;2022-12-18T07:56:04;17.80;;;13.40;;
18166;SDS011;9208;42.688;23.404;2022-12-18T07:58:31;20.03;;;13.30;;
18166;SDS011;9208;42.688;23.404;2022-12-18T08:01:08;15.47;;;12.80;;
18166;SDS011;9208;42.688;23.404;2022-12-18T08:03:35;17.30;;;13.67;;
18166;SDS011;9208;42.688;23.404;2022-12-18T08:06:02;16.97;;;13.50;;
18166;SDS011;9208;42.688;23.404;2022-12-18T08:08:30;17.13;;;13.20;;
18166;SDS011;9208;42.688;23.404;2022-12-18T08:10:56;19.30;;;13.67;;
18166;SDS011;9208;42.688;23.404;2022-12-18T08:13:22;17.93;;;13.60;;
18166;SDS011;9208;42.688;23.404;2022-12-18T08:15:57;19.27;;;14.23;;
18166;SDS011;9208;42.688;23.404;2022-12-18T08:18:31;18.03;;;14.00;;
18166;SDS011;9208;42.688;23.404;2022-12-18T08:21:02;20.70;;;15.20;;
18166;SDS011;9208;42.688;23.404;2022-12-18T08:23:34;19.03;;;14.27;;
18166;SDS011;9208;42.688;23.404;2022-12-18T08:26:00;17.80;;;14.10;;
18166;SDS011;9208;42.688;23.404;2022-12-18T08:28:26;20.77;;;14.63;;
18166;SDS011;9208;42.688;23.404;2022-12-18T08:30:51;20.77;;;14.83;;
18166;SDS011;9208;42.688;23.404;2022-12-18T08:33:17;18.53;;;13.33;;
18166;SDS011;9208;42.688;23.404;2022-12-18T08:35:43;19.17;;;14.00;;
18166;SDS011;9208;42.688;23.404;2022-12-18T08:38:11;19.57;;;14.87;;
18166;SDS011;9208;42.688;23.404;2022-12-18T08:40:36;19.57;;;15.00;;
18166;SDS011;9208;42.688;23.404;2022-12-18T08:43:02;19.47;;;14.50;;
18166;SDS011;9208;42.688;23.404;2022-12-18T08:45:46;17.87;;;13.73;;
18166;SDS011;9208;42.688;23.404;2022-12-18T08:48:11;17.07;;;13.17;;
18166;SDS011;9208;42.688;23.404;2022-12-18T08:50:37;19.77;;;14.57;;
18166;SDS011;9208;42.688;23.404;2022-12-18T08:53:02;18.07;;;12.97;;
18166;SDS011;9208;42.688;23.404;2022-12-18T08:55:29;20.90;;;14.37;;
18166;SDS011;9208;42.688;23.404;2022-12-18T08:57:54;18.53;;;14.07;;
18166;SDS011;9208;42.688;23.404;2022-12-18T09:00:19;18.47;;;13.00;;
18166;SDS011;9208;42.688;23.404;2022-12-18T09:02:45;18.53;;;13.30;;
18166;SDS011;9208;42.688;23.404;2022-12-18T09:05:10;19.37;;;12.73;;
18166;SDS011;9208;42.688;23.404;2022-12-18T09:07:36;15.97;;;12.97;;
18166;SDS011;9208;42.688;23.404;2022-12-18T09:10:02;17.23;;;12.77;;
18166;SDS011;9208;42.688;23.404;2022-12-18T09:12:27;17.13;;;12.67;;
18166;SDS011;9208;42.688;23.404;2022-12-18T09:14:53;20.27;;;13.90;;
18166;SDS011;9208;42.688;23.404;2022-12-18T09:17:18;18.63;;;13.57;;
18166;SDS011;9208;42.688;23.404;2022-12-18T09:19:44;15.97;;;12.53;;
18166;SDS011;9208;42.688;23.404;2022-12-18T09:22:09;18.10;;;12.97;;
18166;SDS011;9208;42.688;23.404;2022-12-18T09:24:36;20.47;;;13.37;;
18166;SDS011;9208;42.688;23.404;2022-12-18T09:27:04;20.87;;;14.17;;
18166;SDS011;9208;42.688;23.404;2022-12-18T09:29:30;20.53;;;13.73;;
18166;SDS011;9208;42.688;23.404;2022-12-18T09:31:55;19.03;;;13.13;;
18166;SDS011;9208;42.688;23.404;2022-12-18T09:34:21;15.13;;;12.63;;
18166;SDS011;9208;42.688;23.404;2022-12-18T09:36:46;16.53;;;12.97;;
18166;SDS011;9208;42.688;23.404;2022-12-18T09:39:12;17.97;;;12.87;;
18166;SDS011;9208;42.688;23.404;2022-12-18T09:41:45;20.17;;;14.33;;
18166;SDS011;9208;42.688;23.404;2022-12-18T09:49:49;17.10;;;12.33;;
18166;SDS011;9208;42.688;23.404;2022-12-18T10:00:57;18.20;;;13.27;;
18166;SDS011;9208;42.688;23.404;2022-12-18T10:03:23;17.07;;;12.93;;
18166;SDS011;9208;42.688;23.404;2022-12-18T10:11:29;16.37;;;12.23;;
18166;SDS011;9208;42.688;23.404;2022-12-18T10:16:47;17.40;;;12.43;;
18166;SDS011;9208;42.688;23.404;2022-12-18T10:26:54;15.30;;;11.50;;
18166;SDS011;9208;42.688;23.404;2022-12-18T10:29:24;17.60;;;13.27;;
18166;SDS011;9208;42.688;23.404;2022-12-18T10:31:50;17.97;;;13.87;;
18166;SDS011;9208;42.688;23.404;2022-12-18T10:34:15;16.53;;;13.20;;
18166;SDS011;9208;42.688;23.404;2022-12-18T10:36:41;19.50;;;13.63;;
18166;SDS011;9208;42.688;23.404;2022-12-18T10:39:20;20.23;;;14.33;;
18166;SDS011;9208;42.688;23.404;2022-12-18T10:41:48;20.03;;;14.23;;
18166;SDS011;9208;42.688;23.404;2022-12-18T10:44:17;17.07;;;12.57;;
18166;SDS011;9208;42.688;23.404;2022-12-18T10:46:48;17.93;;;12.27;;
18166;SDS011;9208;42.688;23.404;2022-12-18T10:49:22;18.47;;;12.47;;
18166;SDS011;9208;42.688;23.404;2022-12-18T10:51:50;16.93;;;11.80;;
18166;SDS011;9208;42.688;23.404;2022-12-18T10:54:29;16.97;;;12.00;;
18166;SDS011;9208;42.688;23.404;2022-12-18T10:57:13;15.87;;;12.23;;
18166;SDS011;9208;42.688;23.404;2022-12-18T10:59:54;16.07;;;11.97;;
18166;SDS011;9208;42.688;23.404;2022-12-18T11:02:33;17.07;;;12.00;;
18166;SDS011;9208;42.688;23.404;2022-12-18T11:05:00;20.27;;;12.37;;
18166;SDS011;9208;42.688;23.404;2022-12-18T11:07:26;17.63;;;12.27;;
18166;SDS011;9208;42.688;23.404;2022-12-18T11:10:18;20.33;;;12.70;;
18166;SDS011;9208;42.688;23.404;2022-12-18T11:12:45;19.33;;;13.57;;
18166;SDS011;9208;42.688;23.404;2022-12-18T11:15:21;16.83;;;12.57;;
18166;SDS011;9208;42.688;23.404;2022-12-18T11:17:52;18.57;;;12.67;;
18166;SDS011;9208;42.688;23.404;2022-12-18T11:20:20;17.37;;;12.83;;
18166;SDS011;9208;42.688;23.404;2022-12-18T11:23:00;18.27;;;13.17;;
18166;SDS011;9208;42.688;23.404;2022-12-18T11:25:28;22.03;;;13.70;;
18166;SDS011;9208;42.688;23.404;2022-12-18T11:27:55;19.90;;;14.13;;
18166;SDS011;9208;42.688;23.404;2022-12-18T11:30:49;18.30;;;12.40;;
18166;SDS011;9208;42.688;23.404;2022-12-18T11:33:42;17.27;;;12.77;;
18166;SDS011;9208;42.688;23.404;2022-12-18T11:36:23;14.57;;;11.63;;
18166;SDS011;9208;42.688;23.404;2022-12-18T11:38:49;17.17;;;12.60;;
18166;SDS011;9208;42.688;23.404;2022-12-18T11:42:04;17.03;;;11.67;;
18166;SDS011;9208;42.688;23.404;2022-12-18T11:47:54;17.83;;;11.90;;
18166;SDS011;9208;42.688;23.404;2022-12-18T11:50:25;20.40;;;12.77;;
18166;SDS011;9208;42.688;23.404;2022-12-18T11:53:03;17.83;;;13.47;;
18166;SDS011;9208;42.688;23.404;2022-12-18T12:00:36;20.77;;;13.63;;
18166;SDS011;9208;42.688;23.404;2022-12-18T12:03:17;21.80;;;13.43;;
18166;SDS011;9208;42.688;23.404;2022-12-18T12:22:07;15.83;;;11.90;;
18166;SDS011;9208;42.688;23.404;2022-12-18T12:40:46;42.80;;;16.70;;
18166;SDS011;9208;42.688;23.404;2022-12-18T12:46:07;18.10;;;12.30;;
18166;SDS011;9208;42.688;23.404;2022-12-18T12:48:54;15.20;;;11.30;;
18166;SDS011;9208;42.688;23.404;2022-12-18T12:51:34;17.97;;;12.57;;
18166;SDS011;9208;42.688;23.404;2022-12-18T12:54:02;16.63;;;11.63;;
18166;SDS011;9208;42.688;23.404;2022-12-18T12:56:54;15.03;;;11.53;;
18166;SDS011;9208;42.688;23.404;2022-12-18T13:07:51;17.67;;;13.17;;
18166;SDS011;9208;42.688;23.404;2022-12-18T13:10:23;16.17;;;12.47;;
18166;SDS011;9208;42.688;23.404;2022-12-18T13:12:52;18.43;;;13.23;;
18166;SDS011;9208;42.688;23.404;2022-12-18T13:15:23;18.60;;;13.33;;
18166;SDS011;9208;42.688;23.404;2022-12-18T13:20:32;16.77;;;12.63;;
18166;SDS011;9208;42.688;23.404;2022-12-18T13:23:00;15.70;;;12.00;;
18166;SDS011;9208;42.688;23.404;2022-12-18T13:25:44;18.23;;;11.90;;
18166;SDS011;9208;42.688;23.404;2022-12-18T13:28:10;18.70;;;12.47;;
18166;SDS011;9208;42.688;23.404;2022-12-18T13:30:41;15.13;;;11.77;;
18166;SDS011;9208;42.688;23.404;2022-12-18T13:38:55;17.93;;;13.33;;
18166;SDS011;9208;42.688;23.404;2022-12-18T13:41:22;16.50;;;12.70;;
18166;SDS011;9208;42.688;23.404;2022-12-18T13:43:53;19.03;;;12.87;;
18166;SDS011;9208;42.688;23.404;2022-12-18T13:49:04;17.43;;;13.17;;
18166;SDS011;9208;42.688;23.404;2022-12-18T13:51:49;17.20;;;12.60;;
18166;SDS011;9208;42.688;23.404;2022-12-18T13:54:23;18.00;;;12.70;;
18166;SDS011;9208;42.688;23.404;2022-12-18T13:56:50;20.40;;;13.63;;
18166;SDS011;9208;42.688;23.404;2022-12-18T13:59:17;19.20;;;13.40;;
18166;SDS011;9208;42.688;23.404;2022-12-18T14:04:23;19.60;;;13.97;;
18166;SDS011;9208;42.688;23.404;2022-12-18T14:06:55;18.43;;;13.13;;
18166;SDS011;9208;42.688;23.404;2022-12-18T14:09:27;19.27;;;14.33;;
18166;SDS011;9208;42.688;23.404;2022-12-18T14:11:55;20.30;;;13.10;;
18166;SDS011;9208;42.688;23.404;2022-12-18T14:14:43;18.30;;;12.93;;
18166;SDS011;9208;42.688;23.404;2022-12-18T14:17:11;16.40;;;12.17;;
18166;SDS011;9208;42.688;23.404;2022-12-18T14:19:37;17.10;;;12.43;;
18166;SDS011;9208;42.688;23.404;2022-12-18T14:22:17;15.40;;;11.20;;
18166;SDS011;9208;42.688;23.404;2022-12-18T14:27:38;19.53;;;14.10;;
18166;SDS011;9208;42.688;23.404;2022-12-18T14:35:32;16.70;;;12.00;;
18166;SDS011;9208;42.688;23.404;2022-12-18T14:40:47;18.97;;;12.80;;
18166;SDS011;9208;42.688;23.404;2022-12-18T14:43:16;18.23;;;12.57;;
18166;SDS011;9208;42.688;23.404;2022-12-18T14:45:42;17.10;;;12.50;;
18166;SDS011;9208;42.688;23.404;2022-12-18T14:51:16;19.97;;;13.43;;
18166;SDS011;9208;42.688;23.404;2022-12-18T14:53:53;18.63;;;14.10;;
18166;SDS011;9208;42.688;23.404;2022-12-18T14:56:22;17.00;;;12.70;;
18166;SDS011;9208;42.688;23.404;2022-12-18T14:58:59;17.47;;;12.17;;
18166;SDS011;9208;42.688;23.404;2022-12-18T15:01:28;18.20;;;12.83;;
18166;SDS011;9208;42.688;23.404;2022-12-18T15:03:57;17.87;;;13.67;;
18166;SDS011;9208;42.688;23.404;2022-12-18T15:06:29;19.97;;;12.97;;
18166;SDS011;9208;42.688;23.404;2022-12-18T15:08:57;18.10;;;12.77;;
18166;SDS011;9208;42.688;23.404;2022-12-18T15:13:52;15.93;;;11.87;;
18166;SDS011;9208;42.688;23.404;2022-12-18T15:16:17;14.57;;;11.07;;
18166;SDS011;9208;42.688;23.404;2022-12-18T15:18:43;16.67;;;11.80;;
18166;SDS011;9208;42.688;23.404;2022-12-18T15:21:17;16.00;;;12.13;;
18166;SDS011;9208;42.688;23.404;2022-12-18T15:26:13;17.17;;;11.63;;
18166;SDS011;9208;42.688;23.404;2022-12-18T15:33:42;16.83;;;12.10;;
18166;SDS011;9208;42.688;23.404;2022-12-18T15:36:25;18.67;;;12.67;;
18166;SDS011;9208;42.688;23.404;2022-12-18T15:38:52;17.67;;;11.93;;
18166;SDS011;9208;42.688;23.404;2022-12-18T15:41:20;16.57;;;12.03;;
18166;SDS011;9208;42.688;23.404;2022-12-18T15:43:47;16.33;;;11.73;;
18166;SDS011;9208;42.688;23.404;2022-12-18T15:46:15;18.77;;;12.83;;
18166;SDS011;9208;42.688;23.404;2022-12-18T15:48:45;18.67;;;13.60;;
18166;SDS011;9208;42.688;23.404;2022-12-18T15:53:55;18.07;;;11.97;;
18166;SDS011;9208;42.688;23.404;2022-12-18T15:56:23;16.17;;;11.87;;
18166;SDS011;9208;42.688;23.404;2022-12-18T15:59:14;16.60;;;11.53;;
18166;SDS011;9208;42.688;23.404;2022-12-18T16:01:41;16.77;;;12.20;;
18166;SDS011;9208;42.688;23.404;2022-12-18T16:04:13;18.57;;;12.80;;
18166;SDS011;9208;42.688;23.404;2022-12-18T16:06:40;18.83;;;13.23;;
18166;SDS011;9208;42.688;23.404;2022-12-18T16:09:06;17.40;;;12.87;;
18166;SDS011;9208;42.688;23.404;2022-12-18T16:11:33;17.73;;;13.33;;
18166;SDS011;9208;42.688;23.404;2022-12-18T16:14:19;19.63;;;14.07;;
18166;SDS011;9208;42.688;23.404;2022-12-18T16:16:48;20.37;;;14.23;;
18166;SDS011;9208;42.688;23.404;2022-12-18T16:19:14;17.60;;;13.00;;
18166;SDS011;9208;42.688;23.404;2022-12-18T16:21:41;18.67;;;12.70;;
18166;SDS011;9208;42.688;23.404;2022-12-18T16:24:10;16.37;;;12.77;;
18166;SDS011;9208;42.688;23.404;2022-12-18T16:26:40;16.80;;;12.27;;
18166;SDS011;9208;42.688;23.404;2022-12-18T16:29:07;19.17;;;14.03;;
18166;SDS011;9208;42.688;23.404;2022-12-18T16:31:32;22.10;;;14.07;;
18166;SDS011;9208;42.688;23.404;2022-12-18T16:36:50;21.23;;;13.23;;
18166;SDS011;9208;42.688;23.404;2022-12-18T16:39:16;20.63;;;13.67;;
18166;SDS011;9208;42.688;23.404;2022-12-18T16:41:42;19.20;;;14.03;;
18166;SDS011;9208;42.688;23.404;2022-12-18T16:44:08;19.20;;;13.93;;
18166;SDS011;9208;42.688;23.404;2022-12-18T16:46:34;18.90;;;14.17;;
18166;SDS011;9208;42.688;23.404;2022-12-18T16:48:59;19.70;;;13.60;;
18166;SDS011;9208;42.688;23.404;2022-12-18T16:51:26;18.63;;;13.13;;
18166;SDS011;9208;42.688;23.404;2022-12-18T16:53:53;19.60;;;13.20;;
18166;SDS011;9208;42.688;23.404;2022-12-18T16:56:19;18.43;;;13.00;;
18166;SDS011;9208;42.688;23.404;2022-12-18T16:58:51;21.50;;;14.67;;
18166;SDS011;9208;42.688;23.404;2022-12-18T17:01:17;21.57;;;15.03;;
18166;SDS011;9208;42.688;23.404;2022-12-18T17:03:43;20.80;;;13.73;;
18166;SDS011;9208;42.688;23.404;2022-12-18T17:06:12;18.77;;;13.70;;
18166;SDS011;9208;42.688;23.404;2022-12-18T17:08:37;20.93;;;14.47;;